Waverly, KS (66871)

6:43 AM CDT on August 31, 2015 (GMT -0500)
KD0RII | | Change Station
CLOSE
Current Station
Personal Weather Station
Location: Melvern, KS
Elevation: 1007 ft
Nearby Weather Stations

Elev 1007 ft 38.50 °N, 95.64 °W | Updated 24 seconds ago

Fog
Fog
62.8 °F
Feels Like 62.8 °F
N
0.0
Wind Variable Wind from NE
Gusts 0.0 mph

Today
High -- | Low -- °F
--% Chance of Precip.
Yesterday
High -- | Low -- °F
Precip. -- in
6:50 AM 7:54 PM
Waning Gibbous, 96% visible
Pressure 29.95 in
Visibility 0.2 miles
Clouds
Dew Point 62 °F
Humidity 99%
Rainfall 0.00 in
Snow Depth Not available.
UV Not available.
Pollen 10.90 out of 12
Air Quality Not available.
Flu Activity Not available.
METAR KEMP 311053Z AUTO 14004KT 1/4SM FG VV018 17/17 A2997 RMK AO2 SLP140 T01670167
Pressure 29.95 in
Visibility 0.2 miles
Clouds
Dew Point 62 °F
Humidity 99%
Rainfall 0.00 in
Snow Depth Not available.
UV Not available.
Pollen 10.90 out of 12
Air Quality Not available.
Flu Activity Not available.
METAR KEMP 311053Z AUTO 14004KT 1/4SM FG VV018 17/17 A2997 RMK AO2 SLP140 T01670167

10-Day Weather Forecast

×

Almanac

Astronomy

Aug. 31, 2015 Rise Set
Actual Time
Civil Twilight
Nautical Twilight
Astronomical Twilight
Moon
Length of Visible Light
Length of Day
Tomorrow will be .
, % of the Moon is Illuminated

Today's Extremes

State Highs State Lows

Community

WunderPhotos

Upload Photos

1,851,219 photos uploaded!

WunderBlogs® & News

Nearby

Air Quality

  Air Quality AQ Index Pollutant
Not available.

Snow Depth

Station Depth Elevation

Earthquake Activity

City Distance Mag. Time & Date
Minimum magnitude displayed is 2.5.

Coastal Water Temperatures

Place Temperature

Stations

Nearby Weather Stations

Station Location Temp. Windchill Dew Point Humidity Wind Precip. Elev Updated Type